createdAt,value
2023-02-09T00:00:12.018Z,2.78
2023-02-09T00:02:45.431Z,2.83
2023-02-09T00:05:14.581Z,2.90
2023-02-09T00:07:43.559Z,2.55
2023-02-09T00:10:12.748Z,2.72
2023-02-09T00:12:59.189Z,2.70
2023-02-09T00:15:29.590Z,2.60
2023-02-09T00:17:58.637Z,2.60
2023-02-09T00:20:28.161Z,2.35
2023-02-09T00:22:57.269Z,2.13
2023-02-09T00:25:26.454Z,2.10
2023-02-09T00:27:55.547Z,2.13
2023-02-09T00:30:24.691Z,2.47
2023-02-09T00:32:55.160Z,2.72
2023-02-09T00:35:24.311Z,2.83
2023-02-09T00:37:53.888Z,2.55
2023-02-09T00:40:23.613Z,2.90
2023-02-09T00:42:52.686Z,2.75
2023-02-09T00:45:21.738Z,2.42
2023-02-09T00:47:50.728Z,2.50
2023-02-09T00:50:21.254Z,2.17
2023-02-09T00:52:50.886Z,2.28
2023-02-09T00:55:20.376Z,2.30
2023-02-09T00:57:49.391Z,2.72
2023-02-09T01:00:21.699Z,2.42
2023-02-09T01:02:50.733Z,2.00
2023-02-09T01:05:21.318Z,2.00
2023-02-09T01:07:50.759Z,1.80
2023-02-09T01:10:19.842Z,1.80
2023-02-09T01:12:49.809Z,1.98
2023-02-09T01:15:19.013Z,1.77
2023-02-09T01:17:47.988Z,1.65
2023-02-09T01:20:17.377Z,1.67
2023-02-09T01:22:47.923Z,1.48
2023-02-09T01:25:17.338Z,1.50
2023-02-09T01:27:46.395Z,1.30
2023-02-09T01:30:15.988Z,1.63
2023-02-09T01:32:45.132Z,1.42
2023-02-09T01:35:14.328Z,1.42
2023-02-09T01:37:43.434Z,1.70
2023-02-09T01:40:14.239Z,1.20
2023-02-09T01:42:43.318Z,1.70
2023-02-09T01:45:24.209Z,1.52
2023-02-09T01:47:59.253Z,1.60
2023-02-09T01:50:30.344Z,1.52
2023-02-09T01:52:59.578Z,1.35
2023-02-09T01:55:35.207Z,1.73
2023-02-09T01:58:10.109Z,1.55
2023-02-09T02:00:39.364Z,1.80
2023-02-09T02:03:13.140Z,1.50
2023-02-09T02:05:46.027Z,1.90
2023-02-09T02:08:21.806Z,1.60
2023-02-09T02:10:53.438Z,1.42
2023-02-09T02:15:59.434Z,1.60
2023-02-09T02:18:42.155Z,2.10
2023-02-09T02:21:40.854Z,1.73
2023-02-09T02:24:38.849Z,1.73
2023-02-09T02:27:11.310Z,1.60
2023-02-09T02:30:15.510Z,1.73
2023-02-09T02:33:14.852Z,1.60
2023-02-09T02:35:51.175Z,2.17
2023-02-09T02:38:25.729Z,1.67
2023-02-09T02:41:05.514Z,1.55
2023-02-09T02:43:44.863Z,1.80
2023-02-09T02:46:20.346Z,1.90
2023-02-09T02:48:56.029Z,1.98
2023-02-09T02:51:30.653Z,1.90
2023-02-09T02:54:03.900Z,1.75
2023-02-09T02:56:37.813Z,2.25
2023-02-09T02:59:10.220Z,2.00
2023-02-09T03:01:44.414Z,2.08
2023-02-09T03:04:16.398Z,2.25
2023-02-09T03:06:45.461Z,2.20
2023-02-09T03:09:15.184Z,2.30
2023-02-09T03:11:47.244Z,2.63
2023-02-09T03:14:38.050Z,2.10
2023-02-09T03:17:20.027Z,2.40
2023-02-09T03:19:55.890Z,1.63
2023-02-09T03:22:31.705Z,2.13
2023-02-09T03:25:08.109Z,1.67
2023-02-09T03:27:42.580Z,1.95
2023-02-09T03:30:14.785Z,2.35
2023-02-09T03:32:47.604Z,2.03
2023-02-09T03:35:20.756Z,1.77
2023-02-09T03:37:49.777Z,1.88
2023-02-09T03:40:19.386Z,2.55
2023-02-09T03:42:48.411Z,2.20
2023-02-09T03:45:17.521Z,2.88
2023-02-09T03:47:46.534Z,2.38
2023-02-09T03:50:15.579Z,2.67
2023-02-09T03:52:46.029Z,2.65
2023-02-09T03:55:15.190Z,2.10
2023-02-09T03:57:44.221Z,2.17
2023-02-09T04:00:14.690Z,2.25
2023-02-09T04:02:44.448Z,2.65
2023-02-09T04:05:13.845Z,2.03
2023-02-09T04:07:43.049Z,2.15
2023-02-09T04:10:13.744Z,2.13
2023-02-09T04:12:42.734Z,2.15
2023-02-09T04:15:12.307Z,2.17
2023-02-09T04:17:41.328Z,1.77
2023-02-09T04:20:10.907Z,1.95
2023-02-09T04:22:40.010Z,2.30
2023-02-09T04:25:09.471Z,2.17
2023-02-09T04:27:40.008Z,1.73
2023-02-09T04:30:10.624Z,2.60
2023-02-09T04:32:39.696Z,1.83
2023-02-09T04:35:09.119Z,1.73
2023-02-09T04:37:38.093Z,2.08
2023-02-09T04:40:07.927Z,1.55
2023-02-09T04:42:36.952Z,2.33
2023-02-09T04:45:08.496Z,1.70
2023-02-09T04:47:37.497Z,1.88
2023-02-09T04:50:07.189Z,2.22
2023-02-09T04:52:36.246Z,2.03
2023-02-09T04:55:05.790Z,1.67
2023-02-09T04:57:52.135Z,2.00
2023-02-09T05:00:22.805Z,2.20
2023-02-09T05:02:51.848Z,2.05
2023-02-09T05:05:20.895Z,1.85
2023-02-09T05:07:50.071Z,2.10
2023-02-09T05:10:19.436Z,1.98
2023-02-09T05:12:48.674Z,2.05
2023-02-09T05:15:17.718Z,2.47
2023-02-09T05:17:48.116Z,2.15
2023-02-09T05:20:17.415Z,2.00
2023-02-09T05:22:46.998Z,1.92
2023-02-09T05:25:17.050Z,2.00
2023-02-09T05:27:46.036Z,2.17
2023-02-09T05:30:15.297Z,2.00
2023-02-09T05:32:44.269Z,1.83
2023-02-09T05:35:14.858Z,1.95
2023-02-09T05:37:43.946Z,1.58
2023-02-09T05:40:14.012Z,2.13
2023-02-09T05:42:43.027Z,2.30
2023-02-09T05:45:12.392Z,2.15
2023-02-09T05:47:41.374Z,2.10
2023-02-09T05:50:10.816Z,2.15
2023-02-09T05:52:41.224Z,2.30
2023-02-09T05:55:10.326Z,2.47
2023-02-09T05:57:39.374Z,2.13
2023-02-09T06:00:09.484Z,1.95
2023-02-09T06:02:41.622Z,2.35
2023-02-09T06:05:10.662Z,2.95
2023-02-09T06:07:41.005Z,1.95
2023-02-09T06:10:10.751Z,2.50
2023-02-09T06:12:41.303Z,2.17
2023-02-09T06:15:11.632Z,2.10
2023-02-09T06:17:40.648Z,1.98
2023-02-09T06:20:10.645Z,2.33
2023-02-09T06:22:41.126Z,1.75
2023-02-09T06:25:10.422Z,2.00
2023-02-09T06:27:39.558Z,2.20
2023-02-09T06:30:09.746Z,2.30
2023-02-09T06:32:38.758Z,1.85
2023-02-09T06:35:08.167Z,2.10
2023-02-09T06:37:37.282Z,1.95
2023-02-09T06:40:08.511Z,1.80
2023-02-09T06:45:14.717Z,1.83
2023-02-09T06:47:44.086Z,1.88
2023-02-09T06:50:15.027Z,2.20
2023-02-09T06:55:15.393Z,1.55
2023-02-09T06:57:44.506Z,2.00
2023-02-09T07:00:15.776Z,1.92
2023-02-09T07:02:45.311Z,1.80
2023-02-09T07:05:16.083Z,2.00
2023-02-09T07:07:45.959Z,1.55
2023-02-09T07:10:18.255Z,2.25
2023-02-09T07:12:47.361Z,2.20
2023-02-09T07:15:16.617Z,1.70
2023-02-09T07:17:45.656Z,1.88
2023-02-09T07:20:15.299Z,2.00
2023-02-09T07:22:44.347Z,2.33
2023-02-09T07:25:18.279Z,2.42
2023-02-09T07:27:47.319Z,1.80
2023-02-09T07:30:17.674Z,1.90
2023-02-09T07:32:46.878Z,2.10
2023-02-09T07:35:16.083Z,2.25
2023-02-09T07:37:45.090Z,2.25
2023-02-09T07:40:14.748Z,1.80
2023-02-09T07:42:45.253Z,2.33
2023-02-09T07:45:14.603Z,2.42
2023-02-09T07:47:44.142Z,1.85
2023-02-09T07:50:13.212Z,2.10
2023-02-09T07:52:42.316Z,2.10
2023-02-09T07:55:11.363Z,1.55
2023-02-09T07:57:40.474Z,2.25
2023-02-09T08:00:21.270Z,1.92
2023-02-09T08:02:50.988Z,2.10
2023-02-09T08:05:24.066Z,1.80
2023-02-09T08:07:53.286Z,2.28
2023-02-09T08:10:22.497Z,1.98
2023-02-09T08:13:00.927Z,1.70
2023-02-09T08:15:37.044Z,2.30
2023-02-09T08:18:13.026Z,1.80
2023-02-09T08:20:43.311Z,2.20
2023-02-09T08:23:17.051Z,1.70
2023-02-09T08:25:47.982Z,2.50
2023-02-09T08:30:48.216Z,2.30
2023-02-09T08:35:46.698Z,1.73
2023-02-09T08:38:15.914Z,2.20
2023-02-09T08:40:45.112Z,1.80
2023-02-09T08:43:15.290Z,2.15
2023-02-09T08:45:44.900Z,2.13
2023-02-09T08:48:15.624Z,2.53
2023-02-09T08:50:44.657Z,2.60
2023-02-09T08:53:13.673Z,2.50
2023-02-09T08:55:42.734Z,2.70
2023-02-09T08:58:13.117Z,2.65
2023-02-09T09:00:42.191Z,2.67
2023-02-09T09:03:11.393Z,2.83
2023-02-09T09:05:41.902Z,1.95
2023-02-09T09:08:11.009Z,2.03
2023-02-09T09:10:40.058Z,1.80
2023-02-09T09:13:09.101Z,2.10
2023-02-09T09:15:38.520Z,2.17
2023-02-09T09:18:07.617Z,2.63
2023-02-09T09:20:39.524Z,2.47
2023-02-09T09:23:10.813Z,2.13
2023-02-09T09:28:09.141Z,2.45
2023-02-09T09:30:38.600Z,2.22
2023-02-09T09:33:07.687Z,2.08
2023-02-09T09:35:36.753Z,2.20
2023-02-09T09:38:05.840Z,2.30
2023-02-09T09:40:40.517Z,1.92
2023-02-09T09:43:20.768Z,2.03
2023-02-09T09:45:50.450Z,2.67
2023-02-09T09:48:24.752Z,2.13
2023-02-09T09:50:57.507Z,2.10
2023-02-09T09:53:33.121Z,2.05
2023-02-09T09:56:07.551Z,1.92
2023-02-09T09:58:40.439Z,2.00
2023-02-09T10:01:13.975Z,2.03
2023-02-09T10:03:43.399Z,1.90
2023-02-09T10:06:17.705Z,2.00
2023-02-09T10:08:53.987Z,1.95
2023-02-09T10:11:31.588Z,1.95
2023-02-09T10:14:00.671Z,1.95
2023-02-09T10:16:34.529Z,2.00
2023-02-09T10:19:05.731Z,2.10
2023-02-09T10:21:36.698Z,2.00
2023-02-09T10:24:13.495Z,2.17
2023-02-09T10:26:44.261Z,2.03
2023-02-09T10:29:27.290Z,1.83
2023-02-09T10:31:59.989Z,2.17
2023-02-09T10:34:33.635Z,1.75
2023-02-09T10:37:21.939Z,1.80
2023-02-09T10:40:11.545Z,1.95
2023-02-09T10:42:50.888Z,2.55
2023-02-09T10:45:26.845Z,1.92
2023-02-09T10:48:00.913Z,1.88
2023-02-09T10:50:30.571Z,2.10
2023-02-09T10:53:01.669Z,2.22
2023-02-09T10:55:36.778Z,2.00
2023-02-09T10:58:22.086Z,2.00
2023-02-09T11:00:55.055Z,1.65
2023-02-09T11:03:26.456Z,2.83
2023-02-09T11:08:40.297Z,4.15
2023-02-09T11:11:19.402Z,2.67
2023-02-09T11:13:49.791Z,2.40
2023-02-09T11:16:52.086Z,2.10
2023-02-09T11:19:46.643Z,2.15
2023-02-09T11:22:20.331Z,1.45
2023-02-09T11:25:03.442Z,1.73
2023-02-09T11:27:51.884Z,1.92
2023-02-09T11:30:37.284Z,2.38
2023-02-09T11:33:12.025Z,1.95
2023-02-09T11:35:48.655Z,1.77
2023-02-09T11:38:20.811Z,1.65
2023-02-09T11:40:53.785Z,1.92
2023-02-09T11:43:28.846Z,1.70
2023-02-09T11:46:04.913Z,2.13
2023-02-09T11:48:40.024Z,2.63
2023-02-09T11:51:13.045Z,1.52
2023-02-09T11:53:48.885Z,1.70
2023-02-09T11:56:21.085Z,2.30
2023-02-09T11:58:56.098Z,1.65
2023-02-09T12:01:38.101Z,2.60
2023-02-09T12:04:15.236Z,1.75
2023-02-09T12:06:47.665Z,2.10
2023-02-09T12:09:35.241Z,2.03
2023-02-09T12:12:14.606Z,1.88
2023-02-09T12:15:02.505Z,1.83
2023-02-09T12:17:43.087Z,2.00
2023-02-09T12:20:28.345Z,1.83
2023-02-09T12:23:01.122Z,1.73
2023-02-09T12:25:51.515Z,1.90
2023-02-09T12:28:39.771Z,1.73
2023-02-09T12:31:25.254Z,1.42
2023-02-09T12:34:28.643Z,1.60
2023-02-09T12:37:28.474Z,1.80
2023-02-09T12:40:23.899Z,1.95
2023-02-09T12:43:29.561Z,2.38
2023-02-09T12:46:23.522Z,2.22
2023-02-09T12:49:20.099Z,1.88
2023-02-09T12:52:18.306Z,2.20
2023-02-09T12:54:50.245Z,1.52
2023-02-09T12:57:58.160Z,1.65
2023-02-09T13:01:05.931Z,2.38
2023-02-09T13:03:43.446Z,1.50
2023-02-09T13:06:27.519Z,1.23
2023-02-09T13:09:01.018Z,1.73
2023-02-09T13:11:34.131Z,2.63
2023-02-09T13:14:07.724Z,1.60
2023-02-09T13:16:59.387Z,1.90
2023-02-09T13:19:54.555Z,1.85
2023-02-09T13:22:31.730Z,2.17
2023-02-09T13:25:13.918Z,2.05
2023-02-09T13:27:47.994Z,2.20
2023-02-09T13:30:31.354Z,2.00
2023-02-09T13:33:09.315Z,1.38
2023-02-09T13:35:43.804Z,2.08
2023-02-09T13:38:18.334Z,2.08
2023-02-09T13:40:51.659Z,1.60
2023-02-09T13:43:28.425Z,1.73
2023-02-09T13:46:00.400Z,1.50
2023-02-09T13:48:33.174Z,1.92
2023-02-09T13:51:06.267Z,1.77
2023-02-09T13:53:35.823Z,1.95
2023-02-09T13:56:13.124Z,1.90
2023-02-09T13:58:42.536Z,2.85
2023-02-09T14:01:18.220Z,1.83
2023-02-09T14:03:58.293Z,1.88
2023-02-09T14:06:35.015Z,1.70
2023-02-09T14:09:06.169Z,1.65
2023-02-09T14:11:42.947Z,1.65
2023-02-09T14:14:17.761Z,2.08
2023-02-09T14:16:53.703Z,2.28
2023-02-09T14:19:28.363Z,1.80
2023-02-09T14:21:57.662Z,2.25
2023-02-09T14:24:29.488Z,2.55
2023-02-09T14:27:05.031Z,2.30
2023-02-09T14:29:37.028Z,2.00
2023-02-09T14:32:33.289Z,2.00
2023-02-09T14:35:20.639Z,2.42
2023-02-09T14:37:51.508Z,1.88
2023-02-09T14:40:25.273Z,2.17
2023-02-09T14:43:01.729Z,2.17
2023-02-09T14:45:39.939Z,2.33
2023-02-09T14:48:20.297Z,2.83
2023-02-09T14:50:50.721Z,1.85
2023-02-09T14:53:20.243Z,2.30
2023-02-09T14:55:50.575Z,2.15
2023-02-09T14:58:25.526Z,2.17
2023-02-09T15:00:57.089Z,2.05
2023-02-09T15:03:27.616Z,1.83
2023-02-09T15:06:00.429Z,2.40
2023-02-09T15:08:33.408Z,2.72
2023-02-09T15:11:25.379Z,3.05
2023-02-09T15:13:59.825Z,3.65
2023-02-09T15:16:28.906Z,3.00
2023-02-09T15:18:58.297Z,2.25
2023-02-09T15:21:27.410Z,2.20
2023-02-09T15:23:56.687Z,2.35
2023-02-09T15:26:26.942Z,2.30
2023-02-09T15:28:57.600Z,2.20
2023-02-09T15:31:28.756Z,2.33
2023-02-09T15:33:57.820Z,2.45
2023-02-09T15:36:28.287Z,2.22
2023-02-09T15:38:57.661Z,2.50
2023-02-09T15:41:44.489Z,2.28
2023-02-09T15:44:37.786Z,2.42
2023-02-09T15:47:24.344Z,2.50
2023-02-09T15:49:53.396Z,2.60
2023-02-09T15:52:22.495Z,2.50
2023-02-09T15:54:53.495Z,2.35
2023-02-09T15:57:25.285Z,2.88
2023-02-09T15:59:55.789Z,2.80
2023-02-09T16:02:25.077Z,2.75
2023-02-09T16:04:54.187Z,2.72
2023-02-09T16:07:26.670Z,11.15
2023-02-09T16:09:55.832Z,49.28
2023-02-09T16:12:24.939Z,62.08
2023-02-09T16:14:55.384Z,111.68
2023-02-09T16:17:24.471Z,125.38
2023-02-09T16:19:53.806Z,135.50
2023-02-09T16:22:25.246Z,210.38
2023-02-09T16:27:25.583Z,150.35
2023-02-09T16:29:56.865Z,91.53
2023-02-09T16:35:04.467Z,48.63
2023-02-09T16:37:40.617Z,17.90
2023-02-09T16:40:25.547Z,14.85
2023-02-09T16:42:55.598Z,8.73
2023-02-09T16:45:27.367Z,43.45
2023-02-09T16:47:59.696Z,23.30
2023-02-09T16:50:33.397Z,11.35
2023-02-09T16:53:04.823Z,27.27
2023-02-09T16:55:35.525Z,29.75
2023-02-09T16:58:07.376Z,30.27
2023-02-09T17:00:39.681Z,69.00
2023-02-09T17:03:15.709Z,79.22
2023-02-09T17:05:47.778Z,60.20
2023-02-09T17:08:19.723Z,61.65
2023-02-09T17:10:50.824Z,51.70
2023-02-09T17:13:20.942Z,71.22
2023-02-09T17:15:53.583Z,91.72
2023-02-09T17:18:25.522Z,68.50
2023-02-09T17:20:56.623Z,15.57
2023-02-09T17:23:27.531Z,27.13
2023-02-09T17:25:57.221Z,8.25
2023-02-09T17:28:28.729Z,23.75
2023-02-09T17:31:02.978Z,3.20
2023-02-09T17:33:35.792Z,2.97
2023-02-09T17:38:55.332Z,2.72
2023-02-09T17:41:30.136Z,2.72
2023-02-09T17:44:22.223Z,4.35
2023-02-09T17:47:03.193Z,4.05
2023-02-09T17:49:34.276Z,3.67
2023-02-09T17:52:03.346Z,4.80
2023-02-09T17:54:36.524Z,3.42
2023-02-09T17:57:05.903Z,5.28
2023-02-09T17:59:35.249Z,3.28
2023-02-09T18:02:15.539Z,5.65
2023-02-09T18:04:50.247Z,6.10
2023-02-09T18:07:20.967Z,4.22
2023-02-09T18:09:50.166Z,4.70
2023-02-09T18:12:22.548Z,6.03
2023-02-09T18:14:51.640Z,5.60
2023-02-09T18:17:23.624Z,6.28
2023-02-09T18:19:53.285Z,4.82
2023-02-09T18:22:22.485Z,9.15
2023-02-09T18:24:52.144Z,12.43
2023-02-09T18:27:24.581Z,13.52
2023-02-09T18:29:54.284Z,8.98
2023-02-09T18:32:25.888Z,10.60
2023-02-09T18:34:55.030Z,6.65
2023-02-09T18:37:24.335Z,4.55
2023-02-09T18:39:54.179Z,3.95
2023-02-09T18:42:23.669Z,3.78
2023-02-09T18:44:52.735Z,4.95
2023-02-09T18:47:22.273Z,6.20
2023-02-09T18:49:52.878Z,4.20
2023-02-09T18:52:25.167Z,4.07
2023-02-09T18:54:54.288Z,3.60
2023-02-09T18:57:23.287Z,3.28
2023-02-09T18:59:52.436Z,3.63
2023-02-09T19:02:23.556Z,8.63
2023-02-09T19:04:54.144Z,7.03
2023-02-09T19:07:23.211Z,5.10
2023-02-09T19:09:52.462Z,4.95
2023-02-09T19:12:21.492Z,3.25
2023-02-09T19:14:52.433Z,4.20
2023-02-09T19:17:22.454Z,5.57
2023-02-09T19:19:53.382Z,7.13
2023-02-09T19:22:23.034Z,6.25
2023-02-09T19:24:55.321Z,7.25
2023-02-09T19:27:26.228Z,4.30
2023-02-09T19:29:57.076Z,4.43
2023-02-09T19:32:27.818Z,3.85
2023-02-09T19:34:58.253Z,4.22
2023-02-09T19:37:27.291Z,19.42
2023-02-09T19:40:04.631Z,10.48
2023-02-09T19:42:35.350Z,8.13
2023-02-09T19:45:04.714Z,4.88
2023-02-09T19:47:38.105Z,5.18
2023-02-09T19:50:08.812Z,8.32
2023-02-09T19:52:38.937Z,7.35
2023-02-09T19:55:08.801Z,8.02
2023-02-09T19:57:37.814Z,7.68
2023-02-09T20:00:07.452Z,9.52
2023-02-09T20:02:38.020Z,5.40
2023-02-09T20:05:09.725Z,5.40
2023-02-09T20:07:39.334Z,4.68
2023-02-09T20:10:09.223Z,4.90
2023-02-09T20:12:38.377Z,7.07
2023-02-09T20:15:07.734Z,7.18
2023-02-09T20:17:36.947Z,9.07
2023-02-09T20:20:10.058Z,20.50
2023-02-09T20:22:40.662Z,17.45
2023-02-09T20:25:10.891Z,16.05
2023-02-09T20:27:41.284Z,10.80
2023-02-09T20:30:11.503Z,9.70
2023-02-09T20:32:40.712Z,8.57
2023-02-09T20:35:11.898Z,7.22
2023-02-09T20:37:42.440Z,7.80
2023-02-09T20:40:13.153Z,11.10
2023-02-09T20:42:59.944Z,11.13
2023-02-09T20:45:49.148Z,7.20
2023-02-09T20:48:19.692Z,8.05
2023-02-09T20:50:51.187Z,15.90
2023-02-09T20:55:53.011Z,14.20
2023-02-09T20:58:22.252Z,11.30
2023-02-09T21:00:51.822Z,9.18
2023-02-09T21:03:21.190Z,6.22
2023-02-09T21:05:50.240Z,6.85
2023-02-09T21:08:20.045Z,6.72
2023-02-09T21:10:56.905Z,6.30
2023-02-09T21:13:26.235Z,7.28
2023-02-09T21:15:57.670Z,8.55
2023-02-09T21:18:27.750Z,8.27
2023-02-09T21:20:56.912Z,8.35
2023-02-09T21:23:26.140Z,10.57
2023-02-09T21:26:03.289Z,17.23
2023-02-09T21:28:32.580Z,17.48
2023-02-09T21:31:01.700Z,9.20
2023-02-09T21:33:33.224Z,9.57
2023-02-09T21:36:02.942Z,10.98
2023-02-09T21:38:32.135Z,16.30
2023-02-09T21:41:02.580Z,15.25
2023-02-09T21:43:31.675Z,12.90
2023-02-09T21:46:00.814Z,11.00
2023-02-09T21:48:29.895Z,10.98
2023-02-09T21:50:59.122Z,11.23
2023-02-09T21:53:28.333Z,11.85
2023-02-09T21:55:57.492Z,11.55
2023-02-09T21:58:28.572Z,11.02
2023-02-09T22:00:59.071Z,12.43
2023-02-09T22:03:28.193Z,11.57
2023-02-09T22:05:57.754Z,9.65
2023-02-09T22:08:27.242Z,9.52
2023-02-09T22:10:56.716Z,9.60
2023-02-09T22:13:28.274Z,9.30
2023-02-09T22:15:58.550Z,8.82
2023-02-09T22:18:27.782Z,8.02
2023-02-09T22:20:56.884Z,8.18
2023-02-09T22:23:27.044Z,6.75
2023-02-09T22:25:59.940Z,7.50
2023-02-09T22:28:31.985Z,7.97
2023-02-09T22:31:07.483Z,6.95
2023-02-09T22:33:36.913Z,6.38
2023-02-09T22:36:07.416Z,7.05
2023-02-09T22:38:37.310Z,6.80
2023-02-09T22:41:07.550Z,7.82
2023-02-09T22:43:38.005Z,8.32
2023-02-09T22:46:07.327Z,9.15
2023-02-09T22:48:36.527Z,9.80
2023-02-09T22:51:06.285Z,9.98
2023-02-09T22:53:35.633Z,9.75
2023-02-09T22:56:05.937Z,10.15
2023-02-09T22:58:35.059Z,9.60
2023-02-09T23:01:05.945Z,10.27
2023-02-09T23:03:35.528Z,11.50
2023-02-09T23:06:08.110Z,12.77
2023-02-09T23:08:37.423Z,11.38
2023-02-09T23:11:09.219Z,11.48
2023-02-09T23:13:39.077Z,13.00
2023-02-09T23:16:15.233Z,12.15
2023-02-09T23:18:48.685Z,11.60
2023-02-09T23:21:19.129Z,11.43
2023-02-09T23:23:48.554Z,10.70
2023-02-09T23:26:18.871Z,10.77
2023-02-09T23:28:48.492Z,10.27
2023-02-09T23:31:20.891Z,11.30
2023-02-09T23:33:50.691Z,11.30
2023-02-09T23:36:22.337Z,12.23
2023-02-09T23:38:55.218Z,12.02
2023-02-09T23:41:25.241Z,10.13
2023-02-09T23:43:54.570Z,8.77
2023-02-09T23:46:28.435Z,8.82
2023-02-09T23:48:58.261Z,8.88
2023-02-09T23:51:29.816Z,8.65
2023-02-09T23:54:00.716Z,7.35
2023-02-09T23:56:31.916Z,7.13
